Silver Lake, Minnesota
Current Conditions -  °F | °C
As of 12:12 PM on Friday 28 Nov 2014 (Local Time) from KHCD Reporting Station
Light Snow Light Snow  
Wind Chill:   Ceiling: 7000
Heat Index: 18°   Visibility: 7mi
Dew Point: 13°   Wind: 8mph
Humidity: 80%   Direction: 80°E
Pressure: 29.86"   Gusts: NA
Location:  44.9°N, 94.2°W
Report Text: KHCD 281812Z AUTO 08007KT 7SM -SN SCT035 SCT044 BKN070 M08/M10 A2986 RMK AO2 T10761105
Loading
Personal Weather Stations






























Interactive Weather Map New forecast layout! Learn more

10-Day Weather Forecast

Advertisements
Track Severe Weather on mobile